createdAt,value
2017-09-01T00:02:05.983Z,92.90
2017-09-01T00:04:33.488Z,92.90
2017-09-01T00:07:01.975Z,93.10
2017-09-01T00:09:29.511Z,92.60
2017-09-01T00:11:57.054Z,92.50
2017-09-01T00:14:24.594Z,92.40
2017-09-01T00:16:52.173Z,92.40
2017-09-01T00:19:19.708Z,92.00
2017-09-01T00:21:47.975Z,92.20
2017-09-01T00:24:15.711Z,92.10
2017-09-01T00:26:43.646Z,92.00
2017-09-01T00:29:11.547Z,91.90
2017-09-01T00:31:39.069Z,92.20
2017-09-01T00:34:09.901Z,92.40
2017-09-01T00:36:45.042Z,92.30
2017-09-01T00:39:12.597Z,92.30
2017-09-01T00:41:42.045Z,92.40
2017-09-01T00:44:13.047Z,92.70
2017-09-01T00:46:44.395Z,92.70
2017-09-01T00:49:11.911Z,92.80
2017-09-01T00:51:39.476Z,92.60
2017-09-01T00:54:07.016Z,92.60
2017-09-01T00:56:34.564Z,92.50
2017-09-01T00:59:06.281Z,92.70
2017-09-01T01:01:33.794Z,92.80
2017-09-01T01:04:01.755Z,92.90
2017-09-01T01:06:29.258Z,93.20
2017-09-01T01:08:56.776Z,92.90
2017-09-01T01:11:24.288Z,93.10
2017-09-01T01:13:55.022Z,93.10
2017-09-01T01:16:25.593Z,93.00
2017-09-01T01:18:53.107Z,92.90
2017-09-01T01:21:20.807Z,93.30
2017-09-01T01:23:48.342Z,93.20
2017-09-01T01:26:15.839Z,93.10
2017-09-01T01:28:46.740Z,93.30
2017-09-01T01:31:14.235Z,93.60
2017-09-01T01:33:41.791Z,93.70
2017-09-01T01:36:09.293Z,93.80
2017-09-01T01:38:36.799Z,93.60
2017-09-01T01:41:04.411Z,93.80
2017-09-01T01:43:32.906Z,93.80
2017-09-01T01:46:03.942Z,93.30
2017-09-01T01:48:31.509Z,93.50
2017-09-01T01:50:59.414Z,93.50
2017-09-01T01:53:26.915Z,93.40
2017-09-01T01:55:54.692Z,93.60
2017-09-01T01:58:22.195Z,93.50
2017-09-01T02:00:49.700Z,93.50
2017-09-01T02:03:17.374Z,93.40
2017-09-01T02:05:45.134Z,93.60
2017-09-01T02:08:13.229Z,93.70
2017-09-01T02:10:40.750Z,93.70
2017-09-01T02:13:08.269Z,93.50
2017-09-01T02:15:39.250Z,93.40
2017-09-01T02:18:07.283Z,93.50
2017-09-01T02:20:34.815Z,93.80
2017-09-01T02:23:02.835Z,93.60
2017-09-01T02:25:30.644Z,93.70
2017-09-01T02:27:58.156Z,93.40
2017-09-01T02:30:25.660Z,93.60
2017-09-01T02:32:58.527Z,93.70
2017-09-01T02:35:26.294Z,93.40
2017-09-01T02:37:53.858Z,93.40
2017-09-01T02:40:21.383Z,93.50
2017-09-01T02:42:48.973Z,93.80
2017-09-01T02:45:20.424Z,93.50
2017-09-01T02:47:47.987Z,93.60
2017-09-01T02:50:15.547Z,93.60
2017-09-01T02:52:43.356Z,93.60
2017-09-01T02:55:10.870Z,93.80
2017-09-01T02:57:38.652Z,93.80
2017-09-01T03:00:06.166Z,93.20
2017-09-01T03:02:33.838Z,93.40
2017-09-01T03:05:05.288Z,93.20
2017-09-01T03:07:32.879Z,93.20
2017-09-01T03:10:00.428Z,93.20
2017-09-01T03:12:27.952Z,93.20
2017-09-01T03:14:55.572Z,93.20
2017-09-01T03:17:26.995Z,93.40
2017-09-01T03:20:02.011Z,93.40
2017-09-01T03:22:29.533Z,93.40
2017-09-01T03:24:57.240Z,93.30
2017-09-01T03:27:24.769Z,93.00
2017-09-01T03:29:52.279Z,93.10
2017-09-01T03:32:19.789Z,93.20
2017-09-01T03:34:51.055Z,93.20
2017-09-01T03:37:18.575Z,93.20
2017-09-01T03:39:46.082Z,93.20
2017-09-01T03:42:13.584Z,93.00
2017-09-01T03:44:41.098Z,93.00
2017-09-01T03:47:12.027Z,93.10
2017-09-01T03:49:39.593Z,93.40
2017-09-01T03:52:07.095Z,93.50
2017-09-01T03:54:34.664Z,93.60
2017-09-01T03:57:02.192Z,93.60
2017-09-01T03:59:30.189Z,93.30
2017-09-01T04:01:57.691Z,93.70
2017-09-01T04:04:31.635Z,93.80
2017-09-01T04:06:59.147Z,94.00
2017-09-01T04:09:26.663Z,94.10
2017-09-01T04:11:54.190Z,93.60
2017-09-01T04:14:21.984Z,93.50
2017-09-01T04:16:53.500Z,93.70
2017-09-01T04:19:24.275Z,93.60
2017-09-01T04:21:51.816Z,93.90
2017-09-01T04:24:19.403Z,93.80
2017-09-01T04:26:46.967Z,94.00
2017-09-01T04:29:14.523Z,94.10
2017-09-01T04:31:42.063Z,94.10
2017-09-01T04:34:12.851Z,94.10
2017-09-01T04:36:40.356Z,93.90
2017-09-01T04:39:12.289Z,94.20
2017-09-01T04:41:39.811Z,94.00
2017-09-01T04:44:07.485Z,94.50
2017-09-01T04:46:35.015Z,94.50
2017-09-01T04:49:02.733Z,94.30
2017-09-01T04:51:30.286Z,94.20
2017-09-01T04:53:57.813Z,94.20
2017-09-01T04:56:25.896Z,94.00
2017-09-01T04:58:53.456Z,94.00
2017-09-01T05:01:21.037Z,94.20
2017-09-01T05:03:48.543Z,93.80
2017-09-01T05:06:19.849Z,93.90
2017-09-01T05:08:47.388Z,94.10
2017-09-01T05:11:14.919Z,94.00
2017-09-01T05:13:42.800Z,94.00
2017-09-01T05:16:10.320Z,93.90
2017-09-01T05:18:44.502Z,94.10
2017-09-01T05:21:12.067Z,94.00
2017-09-01T05:23:39.845Z,94.00
2017-09-01T05:26:07.389Z,94.20
2017-09-01T05:28:34.894Z,94.40
2017-09-01T05:31:02.449Z,94.60
2017-09-01T05:33:29.992Z,94.30
2017-09-01T05:35:57.536Z,94.30
2017-09-01T05:38:29.987Z,94.20
2017-09-01T05:40:57.522Z,94.20
2017-09-01T05:43:25.464Z,94.40
2017-09-01T05:45:52.984Z,93.80
2017-09-01T05:48:24.153Z,94.30
2017-09-01T05:50:51.668Z,94.00
2017-09-01T05:53:19.393Z,94.50
2017-09-01T05:55:46.907Z,94.10
2017-09-01T05:58:14.443Z,94.40
2017-09-01T06:00:41.983Z,93.90
2017-09-01T06:03:09.491Z,93.60
2017-09-01T06:05:40.948Z,93.90
2017-09-01T06:08:08.947Z,93.60
2017-09-01T06:10:36.475Z,93.80
2017-09-01T06:13:04.005Z,93.80
2017-09-01T06:15:31.516Z,93.60
2017-09-01T06:17:59.014Z,93.50
2017-09-01T06:20:26.532Z,93.30
2017-09-01T06:22:57.692Z,93.50
2017-09-01T06:25:25.202Z,93.50
2017-09-01T06:27:53.069Z,93.60
2017-09-01T06:30:20.573Z,93.40
2017-09-01T06:32:48.082Z,93.30
2017-09-01T06:35:22.850Z,93.50
2017-09-01T06:37:50.411Z,92.90
2017-09-01T06:40:17.906Z,92.50
2017-09-01T06:42:45.798Z,92.50
2017-09-01T06:45:13.299Z,92.30
2017-09-01T06:47:40.899Z,92.40
2017-09-01T06:50:10.596Z,92.40
2017-09-01T06:52:38.888Z,92.60
2017-09-01T06:55:10.038Z,92.60
2017-09-01T06:57:40.263Z,92.60
2017-09-01T07:00:07.772Z,92.40
2017-09-01T07:02:35.274Z,92.50
2017-09-01T07:05:06.612Z,92.20
2017-09-01T07:07:37.460Z,92.60
2017-09-01T07:10:05.130Z,91.80
2017-09-01T07:12:33.080Z,92.30
2017-09-01T07:15:00.624Z,91.50
2017-09-01T07:17:28.477Z,91.90
2017-09-01T07:20:00.290Z,91.40
2017-09-01T07:22:31.684Z,91.70
2017-09-01T07:24:59.182Z,91.40
2017-09-01T07:27:33.758Z,92.00
2017-09-01T07:30:01.279Z,91.60
2017-09-01T07:32:28.780Z,91.30
2017-09-01T07:34:57.291Z,91.40
2017-09-01T07:37:24.869Z,91.40
2017-09-01T07:39:53.367Z,91.50
2017-09-01T07:42:20.876Z,91.50
2017-09-01T07:44:48.377Z,91.30
2017-09-01T07:47:15.911Z,90.80
2017-09-01T07:49:43.411Z,91.50
2017-09-01T07:52:10.911Z,91.10
2017-09-01T07:54:41.879Z,91.30
2017-09-01T07:57:09.394Z,91.20
2017-09-01T07:59:37.818Z,91.50
2017-09-01T08:02:05.328Z,91.50
2017-09-01T08:04:32.839Z,91.10
2017-09-01T08:07:00.369Z,90.90
2017-09-01T08:09:27.878Z,89.40
2017-09-01T08:11:55.376Z,90.80
2017-09-01T08:14:23.648Z,89.10
2017-09-01T08:16:51.159Z,89.00
2017-09-01T08:19:18.703Z,87.80
2017-09-01T08:21:46.216Z,88.20
2017-09-01T08:24:13.731Z,86.50
2017-09-01T08:26:42.650Z,86.30
2017-09-01T08:29:10.340Z,86.10
2017-09-01T08:31:37.851Z,85.80
2017-09-01T08:34:05.379Z,86.10
2017-09-01T08:36:36.903Z,84.70
2017-09-01T08:39:04.411Z,85.50
2017-09-01T08:41:39.243Z,85.50
2017-09-01T08:44:06.749Z,85.40
2017-09-01T08:46:34.687Z,85.50
2017-09-01T08:49:02.203Z,84.90
2017-09-01T08:51:32.686Z,84.80
2017-09-01T08:54:04.807Z,85.50
2017-09-01T08:56:32.345Z,85.30
2017-09-01T08:59:00.614Z,85.60
2017-09-01T09:01:28.116Z,85.60
2017-09-01T09:03:55.734Z,85.60
2017-09-01T09:06:23.296Z,84.60
2017-09-01T09:08:50.864Z,85.80
2017-09-01T09:11:18.406Z,86.10
2017-09-01T09:13:45.990Z,86.10
2017-09-01T09:16:13.666Z,84.70
2017-09-01T09:18:41.192Z,84.70
2017-09-01T09:21:08.691Z,85.60
2017-09-01T09:23:36.200Z,84.30
2017-09-01T09:26:03.706Z,85.20
2017-09-01T09:28:31.271Z,84.80
2017-09-01T09:30:58.812Z,83.60
2017-09-01T09:33:26.872Z,84.20
2017-09-01T09:35:54.688Z,83.90
2017-09-01T09:38:22.197Z,83.10
2017-09-01T09:40:54.232Z,83.00
2017-09-01T09:43:22.504Z,81.30
2017-09-01T09:45:53.078Z,81.20
2017-09-01T09:48:24.529Z,79.20
2017-09-01T09:50:52.034Z,79.60
2017-09-01T09:53:23.132Z,78.00
2017-09-01T09:55:51.000Z,78.30
2017-09-01T09:58:18.527Z,79.80
2017-09-01T10:00:46.024Z,79.50
2017-09-01T10:03:13.555Z,78.70
2017-09-01T10:05:41.099Z,78.60
2017-09-01T10:08:08.712Z,78.60
2017-09-01T10:10:36.499Z,79.50
2017-09-01T10:13:04.018Z,79.70
2017-09-01T10:15:31.556Z,80.50
2017-09-01T10:17:59.137Z,80.60
2017-09-01T10:20:26.639Z,80.70
2017-09-01T10:22:54.139Z,82.00
2017-09-01T10:25:28.932Z,82.60
2017-09-01T10:28:00.723Z,81.80
2017-09-01T10:30:28.491Z,81.90
2017-09-01T10:32:55.997Z,81.40
2017-09-01T10:35:23.534Z,83.60
2017-09-01T10:37:55.773Z,83.00
2017-09-01T10:40:23.367Z,83.60
2017-09-01T10:42:50.876Z,83.50
2017-09-01T10:45:18.384Z,83.40
2017-09-01T10:47:57.976Z,83.30
2017-09-01T10:50:38.143Z,81.90
2017-09-01T10:53:21.067Z,81.40
2017-09-01T10:56:00.209Z,81.20
2017-09-01T10:58:27.890Z,82.30
2017-09-01T11:00:55.430Z,81.50
2017-09-01T11:03:22.940Z,80.20
2017-09-01T11:05:50.507Z,80.60
2017-09-01T11:08:28.219Z,80.30
2017-09-01T11:10:55.718Z,80.10
2017-09-01T11:13:23.242Z,79.10
2017-09-01T11:15:50.744Z,79.80
2017-09-01T11:18:18.252Z,79.10
2017-09-01T11:20:51.495Z,78.10
2017-09-01T11:23:24.630Z,76.60
2017-09-01T11:25:55.200Z,76.00
2017-09-01T11:28:22.711Z,74.60
2017-09-01T11:30:50.261Z,76.20
2017-09-01T11:35:52.538Z,77.20
2017-09-01T11:38:20.759Z,76.90
2017-09-01T11:40:48.259Z,77.60
2017-09-01T11:43:23.978Z,78.90
2017-09-01T11:45:55.096Z,76.70
2017-09-01T11:48:22.976Z,76.90
2017-09-01T11:50:50.601Z,77.50
2017-09-01T11:53:18.115Z,78.50
2017-09-01T11:55:52.941Z,78.20
2017-09-01T11:58:20.705Z,78.10
2017-09-01T12:00:48.483Z,77.80
2017-09-01T12:03:16.024Z,77.90
2017-09-01T12:05:43.536Z,77.20
2017-09-01T12:08:11.392Z,77.50
2017-09-01T12:10:39.016Z,77.60
2017-09-01T12:13:06.535Z,77.20
2017-09-01T12:15:34.164Z,76.10
2017-09-01T12:18:02.047Z,76.20
2017-09-01T12:20:29.929Z,75.60
2017-09-01T12:22:57.502Z,75.70
2017-09-01T12:25:28.251Z,75.50
2017-09-01T12:27:56.229Z,74.90
2017-09-01T12:30:24.111Z,74.90
2017-09-01T12:32:51.894Z,74.90
2017-09-01T12:35:19.431Z,73.40
2017-09-01T12:37:46.939Z,73.30
2017-09-01T12:40:18.272Z,74.70
2017-09-01T12:42:45.775Z,74.40
2017-09-01T12:45:13.290Z,74.30
2017-09-01T12:47:40.995Z,74.20
2017-09-01T12:50:08.539Z,73.90
2017-09-01T12:52:36.091Z,73.80
2017-09-01T12:55:03.615Z,73.00
2017-09-01T12:57:31.124Z,73.40
2017-09-01T12:59:59.127Z,73.00
2017-09-01T13:02:26.631Z,73.60
2017-09-01T13:04:54.162Z,72.90
2017-09-01T13:07:21.734Z,73.10
2017-09-01T13:09:49.242Z,72.10
2017-09-01T13:12:16.806Z,72.20
2017-09-01T13:14:44.403Z,72.70
2017-09-01T13:17:11.955Z,72.80
2017-09-01T13:19:39.496Z,72.60
2017-09-01T13:22:08.103Z,74.20
2017-09-01T13:24:35.639Z,75.10
2017-09-01T13:27:07.488Z,76.00
2017-09-01T13:29:35.040Z,76.20
2017-09-01T13:32:02.565Z,76.80
2017-09-01T13:34:30.150Z,77.90
2017-09-01T13:36:57.701Z,78.80
2017-09-01T13:39:25.261Z,78.20
2017-09-01T13:41:52.949Z,78.60
2017-09-01T13:44:24.175Z,79.40
2017-09-01T13:46:51.731Z,80.10
2017-09-01T13:49:19.338Z,80.60
2017-09-01T13:51:46.904Z,80.90
2017-09-01T13:54:14.452Z,81.50
2017-09-01T13:56:42.000Z,80.50
2017-09-01T13:59:13.470Z,79.60
2017-09-01T14:01:41.016Z,81.20
2017-09-01T14:04:08.831Z,82.10
2017-09-01T14:06:36.431Z,80.50
2017-09-01T14:09:03.956Z,80.90
2017-09-01T14:11:35.365Z,79.50
2017-09-01T14:14:02.985Z,81.20
2017-09-01T14:16:30.592Z,77.00
2017-09-01T14:18:58.167Z,77.00
2017-09-01T14:21:25.716Z,76.40
2017-09-01T14:23:53.233Z,76.30
2017-09-01T14:26:20.791Z,75.90
2017-09-01T14:28:48.303Z,75.30
2017-09-01T14:31:15.915Z,75.50
2017-09-01T14:33:47.087Z,74.20
2017-09-01T14:36:14.840Z,75.60
2017-09-01T14:38:42.344Z,75.80
2017-09-01T14:41:09.848Z,74.60
2017-09-01T14:43:37.365Z,74.30
2017-09-01T14:46:04.967Z,72.00
2017-09-01T14:48:32.480Z,72.60
2017-09-01T14:50:59.983Z,71.70
2017-09-01T14:53:27.517Z,70.10
2017-09-01T14:55:55.071Z,68.60
2017-09-01T14:58:22.581Z,67.90
2017-09-01T15:00:50.175Z,69.60
2017-09-01T15:03:17.871Z,68.60
2017-09-01T15:05:45.375Z,68.20
2017-09-01T15:08:12.945Z,68.00
2017-09-01T15:10:40.854Z,67.50
2017-09-01T15:13:08.385Z,66.50
2017-09-01T15:15:36.231Z,66.00
2017-09-01T15:18:03.752Z,65.00
2017-09-01T15:20:31.373Z,63.60
2017-09-01T15:22:58.882Z,64.20
2017-09-01T15:25:26.382Z,63.20
2017-09-01T15:27:53.891Z,64.10
2017-09-01T15:30:21.432Z,63.40
2017-09-01T15:32:49.039Z,62.40
2017-09-01T15:35:16.766Z,62.20
2017-09-01T15:37:44.298Z,62.90
2017-09-01T15:40:13.576Z,63.00
2017-09-01T15:42:41.124Z,62.70
2017-09-01T15:45:09.080Z,61.10
2017-09-01T15:47:40.282Z,60.60
2017-09-01T15:50:07.811Z,60.10
2017-09-01T15:52:35.332Z,60.00
2017-09-01T15:55:02.828Z,61.30
2017-09-01T15:57:30.339Z,59.50
2017-09-01T16:00:01.252Z,59.20
2017-09-01T16:02:29.022Z,58.30
2017-09-01T16:04:56.578Z,58.30
2017-09-01T16:07:24.223Z,58.90
2017-09-01T16:09:51.719Z,59.40
2017-09-01T16:12:19.226Z,60.30
2017-09-01T16:14:49.989Z,61.10
2017-09-01T16:17:17.523Z,61.30
2017-09-01T16:19:45.794Z,61.60
2017-09-01T16:22:13.296Z,61.50
2017-09-01T16:24:40.847Z,61.70
2017-09-01T16:27:08.353Z,62.30
2017-09-01T16:29:36.216Z,63.20
2017-09-01T16:32:03.729Z,63.60
2017-09-01T16:34:31.797Z,63.80
2017-09-01T16:36:59.308Z,64.80
2017-09-01T16:39:27.011Z,65.30
2017-09-01T16:41:54.503Z,66.20
2017-09-01T16:44:22.015Z,65.50
2017-09-01T16:46:50.313Z,66.00
2017-09-01T16:49:18.332Z,66.00
2017-09-01T16:51:45.877Z,66.10
2017-09-01T16:54:13.867Z,66.90
2017-09-01T16:56:41.408Z,67.30
2017-09-01T16:59:13.439Z,67.70
2017-09-01T17:01:41.013Z,67.60
2017-09-01T17:04:08.567Z,68.00
2017-09-01T17:06:36.065Z,68.00
2017-09-01T17:09:03.596Z,68.40
2017-09-01T17:11:31.147Z,68.40
2017-09-01T17:13:58.807Z,68.40
2017-09-01T17:16:26.936Z,69.30
2017-09-01T17:18:54.628Z,69.00
2017-09-01T17:21:22.431Z,69.80
2017-09-01T17:23:49.984Z,70.00
2017-09-01T17:26:17.483Z,70.00
2017-09-01T17:28:45.047Z,70.90
2017-09-01T17:31:12.579Z,70.70
2017-09-01T17:33:43.980Z,71.00
2017-09-01T17:36:11.671Z,70.70
2017-09-01T17:38:39.232Z,70.80
2017-09-01T17:41:06.769Z,70.60
2017-09-01T17:43:34.347Z,71.00
2017-09-01T17:46:05.527Z,71.40
2017-09-01T17:48:33.090Z,72.20
2017-09-01T17:51:00.648Z,72.10
2017-09-01T17:53:28.152Z,72.30
2017-09-01T17:55:55.651Z,72.70
2017-09-01T17:58:23.155Z,73.20
2017-09-01T18:00:57.673Z,73.80
2017-09-01T18:03:25.447Z,73.80
2017-09-01T18:05:56.378Z,74.30
2017-09-01T18:08:23.890Z,74.50
2017-09-01T18:10:51.498Z,75.20
2017-09-01T18:13:19.231Z,75.10
2017-09-01T18:15:46.741Z,76.40
2017-09-01T18:18:26.467Z,76.10
2017-09-01T18:20:53.971Z,75.60
2017-09-01T18:23:21.515Z,75.90
2017-09-01T18:25:49.394Z,76.30
2017-09-01T18:28:16.920Z,76.20
2017-09-01T18:30:44.432Z,76.30
2017-09-01T18:33:12.541Z,76.40
2017-09-01T18:35:43.371Z,77.00
2017-09-01T18:38:10.875Z,77.00
2017-09-01T18:40:38.751Z,77.50
2017-09-01T18:43:06.268Z,77.70
2017-09-01T18:45:33.892Z,78.10
2017-09-01T18:48:05.168Z,78.60
2017-09-01T18:50:33.218Z,79.00
2017-09-01T18:53:00.743Z,79.20
2017-09-01T18:55:28.285Z,78.90
2017-09-01T18:57:55.829Z,79.00
2017-09-01T19:00:23.548Z,79.90
2017-09-01T19:02:51.133Z,79.70
2017-09-01T19:05:18.667Z,79.10
2017-09-01T19:07:47.085Z,80.60
2017-09-01T19:10:14.608Z,80.40
2017-09-01T19:12:42.190Z,81.30
2017-09-01T19:15:09.892Z,81.00
2017-09-01T19:17:41.103Z,80.80
2017-09-01T19:20:08.866Z,80.90
2017-09-01T19:22:36.369Z,81.10
2017-09-01T19:25:03.883Z,80.50
2017-09-01T19:27:31.414Z,80.60
2017-09-01T19:29:59.104Z,80.50
2017-09-01T19:32:31.116Z,81.00
2017-09-01T19:35:01.597Z,80.90
2017-09-01T19:37:29.258Z,81.90
2017-09-01T19:40:00.800Z,81.60
2017-09-01T19:42:28.332Z,82.50
2017-09-01T19:44:55.876Z,83.00
2017-09-01T19:47:31.071Z,83.30
2017-09-01T19:49:58.609Z,84.30
2017-09-01T19:52:26.441Z,84.60
2017-09-01T19:54:53.950Z,84.30
2017-09-01T19:57:21.599Z,84.20
2017-09-01T19:59:49.116Z,84.70
2017-09-01T20:02:16.622Z,84.10
2017-09-01T20:04:44.901Z,84.20
2017-09-01T20:07:12.403Z,83.70
2017-09-01T20:09:39.940Z,84.80
2017-09-01T20:12:07.459Z,84.50
2017-09-01T20:14:35.319Z,84.50
2017-09-01T20:17:02.831Z,84.50
2017-09-01T20:19:30.351Z,84.30
2017-09-01T20:21:57.864Z,84.60
2017-09-01T20:24:25.440Z,85.20
2017-09-01T20:26:53.043Z,85.00
2017-09-01T20:29:20.631Z,84.00
2017-09-01T20:31:48.154Z,82.50
2017-09-01T20:34:15.654Z,82.60
2017-09-01T20:36:46.747Z,83.30
2017-09-01T20:39:14.269Z,83.30
2017-09-01T20:41:42.087Z,82.40
2017-09-01T20:44:09.683Z,81.80
2017-09-01T20:46:37.198Z,81.40
2017-09-01T20:49:04.703Z,81.80
2017-09-01T20:51:32.331Z,81.50
2017-09-01T20:53:59.827Z,81.30
2017-09-01T20:56:27.352Z,81.70
2017-09-01T20:58:55.067Z,82.90
2017-09-01T21:01:22.884Z,82.60
2017-09-01T21:03:54.243Z,83.60
2017-09-01T21:06:21.934Z,83.50
2017-09-01T21:08:49.447Z,83.30
2017-09-01T21:11:16.988Z,83.10
2017-09-01T21:13:44.759Z,84.20
2017-09-01T21:16:12.399Z,84.00
2017-09-01T21:18:39.895Z,85.30
2017-09-01T21:21:10.760Z,83.90
2017-09-01T21:23:38.271Z,85.60
2017-09-01T21:26:05.783Z,85.90
2017-09-01T21:28:36.975Z,86.30
2017-09-01T21:31:07.403Z,86.60
2017-09-01T21:33:34.962Z,87.40
2017-09-01T21:36:06.926Z,87.70
2017-09-01T21:38:34.435Z,88.00
2017-09-01T21:41:01.978Z,86.30
2017-09-01T21:43:29.500Z,86.40
2017-09-01T21:45:57.031Z,85.50
2017-09-01T21:48:24.567Z,86.40
2017-09-01T21:50:55.652Z,87.00
2017-09-01T21:53:23.381Z,87.20
2017-09-01T21:55:50.881Z,87.00
2017-09-01T21:58:18.539Z,86.50
2017-09-01T22:00:57.909Z,87.00
2017-09-01T22:03:25.513Z,86.40
2017-09-01T22:05:53.045Z,86.80
2017-09-01T22:08:20.618Z,87.40
2017-09-01T22:10:48.677Z,87.70
2017-09-01T22:13:17.280Z,87.70
2017-09-01T22:15:44.811Z,87.60
2017-09-01T22:18:12.491Z,87.70
2017-09-01T22:20:40.508Z,86.40
2017-09-01T22:23:08.017Z,85.30
2017-09-01T22:25:38.756Z,85.00
2017-09-01T22:28:06.274Z,85.50
2017-09-01T22:30:34.268Z,86.40
2017-09-01T22:33:01.851Z,86.60
2017-09-01T22:35:32.640Z,87.70
2017-09-01T22:38:00.159Z,87.70
2017-09-01T22:40:28.312Z,88.50
2017-09-01T22:42:56.569Z,88.60
2017-09-01T22:45:24.143Z,87.20
2017-09-01T22:47:51.850Z,86.40
2017-09-01T22:50:19.359Z,86.80
2017-09-01T22:52:50.423Z,87.10
2017-09-01T22:55:25.157Z,87.50
2017-09-01T22:57:53.617Z,88.20
2017-09-01T23:00:25.107Z,88.30
2017-09-01T23:02:52.705Z,88.90
2017-09-01T23:05:20.227Z,89.20
2017-09-01T23:07:47.728Z,89.20
2017-09-01T23:10:20.159Z,89.80
2017-09-01T23:12:48.602Z,89.70
2017-09-01T23:15:16.501Z,90.00
2017-09-01T23:17:44.012Z,90.10
2017-09-01T23:20:11.517Z,90.10
2017-09-01T23:22:39.056Z,90.30
2017-09-01T23:25:06.560Z,90.30
2017-09-01T23:27:34.067Z,90.40
2017-09-01T23:30:01.573Z,90.50
2017-09-01T23:32:29.701Z,90.70
2017-09-01T23:34:57.693Z,90.70
2017-09-01T23:37:25.375Z,90.80
2017-09-01T23:39:55.991Z,91.00
2017-09-01T23:42:23.631Z,91.10
2017-09-01T23:44:51.501Z,91.40
2017-09-01T23:47:19.184Z,91.50
2017-09-01T23:49:46.692Z,91.90
2017-09-01T23:52:20.651Z,91.90
2017-09-01T23:54:48.209Z,91.90
2017-09-01T23:57:15.869Z,91.90
2017-09-01T23:59:43.430Z,92.00
